This is the latest recevied weather packets stored in our database for station/object DF2AP-13. If no packets are shown the sender has not sent any weather packets the latest 10 day(s).
| Time | Temp. | Humidity | Pressure | Rain* | Wind** | Luminosity | Snow |
|---|---|---|---|---|---|---|---|
| 1777226274 | 11.67° C | 45% | 1025.5 hPa | - | - | - | - |
| 1777225674 | 12.22° C | 42% | 1025.4 hPa | - | - | - | - |
| 1777225074 | 13.33° C | 39% | 1025.2 hPa | - | - | - | - |
| 1777224474 | 15° C | 36% | 1025.1 hPa | - | - | - | - |
| 1777223874 | 17.22° C | 32% | 1024.7 hPa | - | - | - | - |
| 1777223274 | 18.89° C | 29% | 1024.6 hPa | - | - | - | - |
| 1777222674 | 20.56° C | 27% | 1024.4 hPa | - | - | - | - |
| 1777222074 | 21.11° C | 25% | 1024.6 hPa | - | - | - | - |
| 1777221474 | 22.22° C | 26% | 1024.4 hPa | - | - | - | - |
| 1777220874 | 20° C | 28% | 1024.7 hPa | - | - | - | - |
| 1777220274 | 17.78° C | 31% | 1025 hPa | - | - | - | - |
| 1777219674 | 20° C | 28% | 1024.8 hPa | - | - | - | - |
| 1777219074 | 20° C | 28% | 1024.9 hPa | - | - | - | - |
| 1777218474 | 18.33° C | 32% | 1025.1 hPa | - | - | - | - |
| 1777217874 | 16.67° C | 34% | 1025.2 hPa | - | - | - | - |
| 1777217274 | 16.67° C | 33% | 1025.2 hPa | - | - | - | - |
| 1777216674 | 15.56° C | 35% | 1025.3 hPa | - | - | - | - |
| 1777216074 | 15° C | 36% | 1025.6 hPa | - | - | - | - |
| 1777215474 | 15° C | 37% | 1025.7 hPa | - | - | - | - |
| 1777214874 | 15° C | 37% | 1025.7 hPa | - | - | - | - |
| 1777214274 | 15° C | 37% | 1025.7 hPa | - | - | - | - |
| 1777213674 | 15.56° C | 37% | 1025.7 hPa | - | - | - | - |
| 1777213074 | 15.56° C | 35% | 1025.8 hPa | - | - | - | - |
| 1777212474 | 15.56° C | 37% | 1025.8 hPa | - | - | - | - |
| 1777211874 | 15.56° C | 38% | 1025.8 hPa | - | - | - | - |
* Rain since midnight (hover to see other rain measurements)
** Current wind speed in m/s (hover to see current wind gust speed)